Time;durP1;ratioP1;P1;durP2;ratioP2;P2;SDS_P1;SDS_P2;PMS_P1;PMS_P2;Temp;Humidity;BMP_temperature;BMP_pressure;BME280_temperature;BME280_humidity;BME280_pressure;Samples;Min_cycle;Max_cycle;Signal;HPM_P1;HPM_P2
2022/04/26 03:38:06;;;;;;;28.65;19.85;;;;;;;9.09;70.27;98642.41;4999341;28;20028;-78
2022/04/26 03:40:32;;;;;;;27.48;19.80;;;;;;;9.03;70.58;98642.31;5028088;28;20041;-78
2022/04/26 03:42:57;;;;;;;31.67;20.10;;;;;;;9.05;70.35;98637.56;4988468;28;20389;-78
2022/04/26 03:45:22;;;;;;;27.58;21.02;;;;;;;9.03;70.77;98622.88;5007664;28;20044;-78
2022/04/26 03:47:49;;;;;;;29.13;19.73;;;;;;;8.99;70.88;98635.06;4994556;28;20064;-78
2022/04/26 03:50:14;;;;;;;28.70;19.92;;;;;;;9.06;70.40;98638.38;5009773;28;20029;-78
2022/04/26 03:52:40;;;;;;;31.15;21.60;;;;;;;9.06;70.54;98627.72;5023887;28;20030;-79
2022/04/26 03:55:06;;;;;;;34.40;22.25;;;;;;;9.03;70.97;98633.50;5000789;28;20128;-79
2022/04/26 03:57:31;;;;;;;29.70;20.52;;;;;;;8.99;70.78;98633.22;5036131;28;20096;-79
2022/04/26 03:59:57;;;;;;;31.02;19.92;;;;;;;8.99;70.65;98625.22;4998888;28;20427;-78
2022/04/26 04:02:22;;;;;;;30.65;22.23;;;;;;;9.02;71.21;98637.25;5007395;28;20560;-78
2022/04/26 04:04:47;;;;;;;32.67;22.75;;;;;;;8.99;70.96;98635.88;4988938;28;20425;-79
2022/04/26 04:07:12;;;;;;;33.17;21.70;;;;;;;9.01;70.96;98636.44;5005333;28;20064;-78
2022/04/26 04:09:38;;;;;;;31.83;22.60;;;;;;;8.99;70.95;98643.84;5024163;28;20036;-78
2022/04/26 04:12:04;;;;;;;31.48;22.08;;;;;;;9.01;71.12;98646.28;5008708;28;20401;-78
2022/04/26 04:14:29;;;;;;;31.30;21.42;;;;;;;9.03;71.33;98642.31;5012659;28;20114;-78
2022/04/26 04:16:56;;;;;;;31.48;21.98;;;;;;;9.05;70.28;98644.72;5008169;28;20253;-79
2022/04/26 04:19:22;;;;;;;33.85;21.92;;;;;;;9.02;70.79;98634.59;5030770;28;20095;-79
2022/04/26 04:21:50;;;;;;;34.63;22.88;;;;;;;9.06;70.67;98635.72;4992703;28;20034;-79
2022/04/26 04:24:16;;;;;;;30.50;21.95;;;;;;;9.06;71.35;98646.34;5010892;28;20481;-78
2022/04/26 04:26:41;;;;;;;32.83;22.38;;;;;;;9.09;71.74;98647.72;5014234;28;20171;-79
2022/04/26 04:29:07;;;;;;;33.25;22.73;;;;;;;9.05;71.79;98639.41;4997404;28;20048;-79
2022/04/26 04:31:33;;;;;;;32.50;21.20;;;;;;;9.06;71.63;98647.13;4986599;28;20037;-79
2022/04/26 04:34:00;;;;;;;35.30;23.05;;;;;;;9.04;71.65;98646.56;5007328;28;20029;-78
2022/04/26 04:36:27;;;;;;;34.97;23.73;;;;;;;9.13;71.49;98635.53;5010158;28;20014;-79
2022/04/26 04:38:52;;;;;;;32.58;21.85;;;;;;;9.12;71.54;98652.53;4991950;28;20060;-79
2022/04/26 04:41:18;;;;;;;31.98;22.65;;;;;;;9.13;71.48;98654.19;4991569;28;20053;-79
2022/04/26 04:43:43;;;;;;;32.30;22.27;;;;;;;9.12;71.19;98655.22;4991382;28;20029;-79
2022/04/26 04:46:10;;;;;;;32.38;21.55;;;;;;;9.06;71.54;98663.09;5015224;28;20030;-79
2022/04/26 04:48:35;;;;;;;38.63;26.15;;;;;;;9.16;71.91;98656.34;5015013;28;20058;-79
2022/04/26 04:51:00;;;;;;;44.65;28.95;;;;;;;9.22;72.28;98652.72;4996837;28;20029;-78
2022/04/26 04:53:26;;;;;;;42.28;26.60;;;;;;;9.14;72.77;98661.91;4992707;28;20033;-79
2022/04/26 04:55:51;;;;;;;36.55;26.75;;;;;;;9.17;72.24;98652.63;4976161;28;20032;-79
2022/04/26 04:58:16;;;;;;;39.55;25.98;;;;;;;9.05;72.33;98660.69;4994649;28;20052;-79
2022/04/26 05:00:41;;;;;;;33.50;24.40;;;;;;;8.97;72.16;98664.59;5030467;28;20041;-79
2022/04/26 05:03:07;;;;;;;37.67;25.13;;;;;;;8.95;73.29;98663.22;4992184;28;20076;-79
2022/04/26 05:05:32;;;;;;;32.13;23.55;;;;;;;8.98;72.03;98666.19;4993084;28;20037;-78
2022/04/26 05:07:58;;;;;;;34.63;25.55;;;;;;;8.98;72.57;98673.34;5018116;28;20033;-79
2022/04/26 05:10:24;;;;;;;37.40;24.67;;;;;;;8.95;73.01;98664.00;5004305;28;20041;-79
2022/04/26 05:12:49;;;;;;;36.35;24.08;;;;;;;9.01;73.23;98678.22;5007211;28;20033;-79
2022/04/26 05:15:15;;;;;;;34.33;24.77;;;;;;;9.20;72.51;98676.91;5008948;28;20034;-78
2022/04/26 05:17:40;;;;;;;31.55;23.38;;;;;;;9.14;72.87;98669.09;5021426;28;20094;-78
2022/04/26 05:20:07;;;;;;;31.70;22.52;;;;;;;9.00;73.04;98688.03;5004704;28;20473;-79
2022/04/26 05:24:53;;;;;;;32.45;23.58;;;;;;;9.00;72.90;98684.56;4993295;28;20029;-78
2022/04/26 05:25:18;;;;;;;32.67;23.15;;;;;;;9.14;72.23;98693.03;5017344;28;20393;-78
2022/04/26 05:27:43;;;;;;;30.58;21.73;;;;;;;9.05;72.98;98688.13;4998144;28;20034;-79
2022/04/26 05:30:09;;;;;;;29.52;21.50;;;;;;;9.03;73.06;98686.75;5003726;28;20033;-79
2022/04/26 05:32:35;;;;;;;30.50;21.98;;;;;;;9.11;72.54;98688.22;5004313;28;20053;-79
2022/04/26 05:35:03;;;;;;;29.65;22.73;;;;;;;9.02;73.01;98691.28;5006498;28;20052;-78
2022/04/26 05:37:31;;;;;;;31.92;21.52;;;;;;;9.03;73.35;98687.56;4993700;28;20112;-79
2022/04/26 05:39:56;;;;;;;28.75;21.60;;;;;;;9.22;73.16;98692.66;5026505;28;20034;-79
2022/04/26 05:42:22;;;;;;;31.17;22.55;;;;;;;9.14;72.75;98688.53;5009256;28;20048;-79
2022/04/26 05:44:47;;;;;;;34.88;21.85;;;;;;;9.04;73.10;98683.84;5029577;28;20044;-79
2022/04/26 05:47:13;;;;;;;27.73;20.23;;;;;;;8.94;73.03;98681.03;5029719;28;20056;-79
2022/04/26 05:49:38;;;;;;;33.58;21.05;;;;;;;9.07;72.38;98686.03;5011636;28;20119;-79
2022/04/26 05:52:04;;;;;;;29.95;19.92;;;;;;;9.13;72.99;98678.13;5012851;28;20038;-79
2022/04/26 05:54:30;;;;;;;25.90;18.92;;;;;;;9.12;73.44;98671.19;5012902;28;20029;-80
2022/04/26 05:56:56;;;;;;;26.33;19.58;;;;;;;9.10;73.68;98675.94;5030095;28;20021;-79
2022/04/26 05:59:22;;;;;;;23.80;18.67;;;;;;;9.16;73.31;98677.63;5012755;28;20037;-79
2022/04/26 06:01:48;;;;;;;28.17;19.80;;;;;;;9.13;73.46;98686.13;5030531;28;20022;-79
2022/04/26 06:04:14;;;;;;;28.55;19.50;;;;;;;9.12;73.19;98676.50;5012783;28;20073;-79
2022/04/26 06:06:39;;;;;;;28.95;19.88;;;;;;;9.16;73.68;98672.31;4996253;28;20116;-79
2022/04/26 06:09:05;;;;;;;25.85;18.75;;;;;;;9.24;73.45;98674.56;5011919;28;20021;-79
2022/04/26 06:11:31;;;;;;;26.15;19.13;;;;;;;9.27;73.70;98676.72;5012507;28;20140;-80
2022/04/26 06:13:56;;;;;;;24.05;18.45;;;;;;;9.44;73.41;98673.00;5030935;28;20108;-79
2022/04/26 06:16:21;;;;;;;26.92;19.63;;;;;;;9.38;74.12;98681.16;5030302;28;20033;-79
2022/04/26 06:18:47;;;;;;;26.52;20.00;;;;;;;9.38;73.58;98681.97;4995624;28;20060;-79
2022/04/26 06:21:12;;;;;;;28.02;19.50;;;;;;;9.43;73.82;98678.59;5012647;28;20407;-79
2022/04/26 06:23:39;;;;;;;27.33;18.70;;;;;;;9.40;73.91;98684.38;4996447;28;20033;-79
2022/04/26 06:26:04;;;;;;;26.60;20.60;;;;;;;9.44;73.84;98693.50;5012493;28;20035;-79
2022/04/26 06:28:30;;;;;;;27.33;18.90;;;;;;;9.43;73.86;98702.56;4995586;28;20021;-79
2022/04/26 06:30:56;;;;;;;27.48;20.42;;;;;;;9.49;74.24;98690.91;5012491;28;20053;-79
2022/04/26 06:33:21;;;;;;;27.02;20.13;;;;;;;9.48;73.76;98697.31;4996138;28;20029;-80
2022/04/26 06:35:46;;;;;;;28.92;21.35;;;;;;;9.55;74.22;98696.06;5030251;28;20033;-79
2022/04/26 06:38:12;;;;;;;29.65;21.17;;;;;;;9.62;73.94;98696.72;4995754;28;20063;-79
2022/04/26 06:40:37;;;;;;;24.55;18.42;;;;;;;9.68;74.03;98692.25;5014559;28;20366;-79
2022/04/26 06:43:03;;;;;;;25.98;18.45;;;;;;;9.79;73.44;98691.31;4999611;28;20120;-79
2022/04/26 06:45:28;;;;;;;25.38;18.40;;;;;;;9.79;72.78;98686.81;5016008;28;20435;-79
2022/04/26 06:47:54;;;;;;;25.88;19.45;;;;;;;9.89;73.59;98691.47;5014076;28;20099;-79
2022/04/26 06:50:21;;;;;;;26.60;19.52;;;;;;;9.91;73.06;98689.38;5015953;28;20091;-79
2022/04/26 06:52:47;;;;;;;26.92;19.90;;;;;;;9.93;72.70;98681.91;5033884;28;20063;-79
2022/04/26 06:55:12;;;;;;;28.15;19.70;;;;;;;9.96;72.88;98683.28;4999426;28;20049;-79
2022/04/26 06:57:38;;;;;;;27.23;19.08;;;;;;;10.02;72.51;98688.44;4982606;28;20026;-79
2022/04/26 07:00:05;;;;;;;26.92;19.27;;;;;;;9.99;72.81;98686.25;5033439;28;20029;-79
2022/04/26 07:02:30;;;;;;;25.27;19.23;;;;;;;10.14;72.78;98693.66;5033201;28;20029;-79
2022/04/26 07:04:59;;;;;;;29.52;20.08;;;;;;;10.22;73.10;98678.00;4999400;28;20037;-79
2022/04/26 07:07:25;;;;;;;31.02;20.95;;;;;;;10.17;73.10;98688.63;5014638;28;20116;-79
2022/04/26 07:09:50;;;;;;;28.05;20.55;;;;;;;10.22;72.57;98687.91;4999253;28;20458;-79
2022/04/26 07:12:15;;;;;;;28.70;20.55;;;;;;;10.36;73.10;98694.44;5015767;28;20370;-79
2022/04/26 07:14:40;;;;;;;27.17;19.73;;;;;;;10.50;73.20;98693.81;4999229;28;20032;-79
2022/04/26 07:17:06;;;;;;;28.85;21.05;;;;;;;10.52;72.73;98693.56;5014916;28;20029;-79
2022/04/26 07:19:35;;;;;;;28.00;20.40;;;;;;;10.54;73.02;98688.75;4998872;28;20030;-79
2022/04/26 07:22:03;;;;;;;27.45;19.67;;;;;;;10.67;72.45;98682.22;5033070;28;20032;-79
2022/04/26 07:24:28;;;;;;;26.40;19.90;;;;;;;10.67;73.04;98687.53;4999821;28;20531;-79
2022/04/26 07:26:55;;;;;;;28.13;21.33;;;;;;;10.82;72.71;98691.16;4998501;28;20069;-79
2022/04/26 07:29:20;;;;;;;29.33;20.92;;;;;;;10.77;73.09;98693.00;5032732;28;20048;-79
2022/04/26 07:31:46;;;;;;;26.67;20.42;;;;;;;10.84;73.50;98694.38;5015188;28;20113;-79
2022/04/26 07:34:20;;;;;;;31.50;22.95;;;;;;;10.73;73.18;98687.34;5015566;28;20044;-79
2022/04/26 07:37:00;;;;;;;29.92;21.95;;;;;;;10.86;73.47;98678.09;5015141;28;20014;-79
2022/04/26 07:39:30;;;;;;;32.78;22.27;;;;;;;10.86;72.87;98678.91;5014815;28;20025;-79
2022/04/26 07:41:56;;;;;;;28.58;20.75;;;;;;;10.76;73.55;98688.72;5032838;28;20053;-79
2022/04/26 07:44:22;;;;;;;30.23;21.25;;;;;;;10.89;74.06;98690.97;5032717;28;20057;-79
2022/04/26 07:46:48;;;;;;;28.90;21.15;;;;;;;10.97;74.06;98690.47;5014777;28;20033;-79
2022/04/26 07:49:15;;;;;;;29.85;23.08;;;;;;;11.05;73.53;98693.50;5014529;28;20040;-79
2022/04/26 07:51:42;;;;;;;29.75;21.48;;;;;;;10.99;74.23;98688.38;5031109;28;20102;-79
2022/04/26 07:54:08;;;;;;;29.38;21.45;;;;;;;11.08;74.00;98686.84;4998468;28;20021;-79
2022/04/26 07:56:34;;;;;;;30.05;21.38;;;;;;;11.06;74.26;98700.47;4998478;28;20048;-79
2022/04/26 07:59:01;;;;;;;34.60;23.63;;;;;;;11.14;74.47;98701.84;5014163;28;20029;-79
2022/04/26 08:01:27;;;;;;;30.70;23.38;;;;;;;11.17;73.98;98704.00;5014491;28;20495;-79
2022/04/26 08:03:52;;;;;;;34.10;24.35;;;;;;;11.26;74.28;98705.16;5014701;28;20033;-79
2022/04/26 08:06:18;;;;;;;32.78;24.45;;;;;;;11.30;74.52;98701.72;4998186;28;20037;-79
2022/04/26 08:08:43;;;;;;;32.90;23.23;;;;;;;11.40;74.36;98706.31;5031495;28;20029;-79
2022/04/26 08:11:12;;;;;;;33.50;23.85;;;;;;;11.38;74.96;98708.44;4997729;28;20021;-80
2022/04/26 08:13:38;;;;;;;38.40;24.55;;;;;;;11.53;74.22;98708.53;5014595;28;20025;-80
2022/04/26 08:16:04;;;;;;;31.08;24.33;;;;;;;11.68;73.89;98714.03;4998125;28;20518;-80
2022/04/26 08:18:29;;;;;;;35.38;25.08;;;;;;;11.70;74.07;98722.59;5013569;28;20029;-80
2022/04/26 08:20:55;;;;;;;37.63;25.65;;;;;;;11.69;74.23;98722.84;5014418;28;20036;-79
2022/04/26 08:23:21;;;;;;;33.70;24.73;;;;;;;11.76;74.61;98723.41;5014437;28;20037;-79
2022/04/26 08:28:30;;;;;;;34.95;24.70;;;;;;;11.85;74.05;98730.69;5031609;28;20116;-79
2022/04/26 08:30:56;;;;;;;43.67;25.30;;;;;;;11.96;73.74;98734.22;4981652;28;20412;-79
2022/04/26 08:33:22;;;;;;;33.60;23.67;;;;;;;12.08;73.10;98734.81;5012976;28;20112;-79
2022/04/26 08:35:47;;;;;;;32.42;24.40;;;;;;;12.07;72.63;98737.75;5031917;28;20100;-79
2022/04/26 08:38:13;;;;;;;34.30;24.02;;;;;;;12.07;73.04;98738.56;5013463;28;20049;-79
2022/04/26 08:40:41;;;;;;;30.80;22.80;;;;;;;12.16;72.90;98744.22;5013782;28;20110;-80
2022/04/26 08:43:06;;;;;;;29.83;23.52;;;;;;;12.23;72.18;98747.47;5013839;28;20079;-80
2022/04/26 08:45:33;;;;;;;35.30;25.55;;;;;;;12.26;72.48;98753.09;5013646;28;20301;-79
2022/04/26 08:51:03;;;;;;;33.17;22.95;;;;;;;12.34;72.53;98762.50;5016917;28;20076;-79
2022/04/26 08:53:35;;;;;;;29.08;21.52;;;;;;;12.43;72.55;98763.59;5000644;28;20026;-80
2022/04/26 08:56:03;;;;;;;29.08;20.63;;;;;;;12.46;72.26;98766.56;4996915;28;20033;-79
2022/04/26 08:58:31;;;;;;;33.35;23.55;;;;;;;12.50;72.16;98761.47;4996664;28;20497;-79
2022/04/26 09:01:18;;;;;;;31.42;23.08;;;;;;;12.61;72.81;98758.59;5013929;28;20056;-79
2022/04/26 09:04:07;;;;;;;30.30;21.63;;;;;;;12.72;71.29;98767.44;5013266;28;20029;-79
2022/04/26 09:06:33;;;;;;;34.90;23.30;;;;;;;12.79;71.05;98762.66;5030667;28;20030;-79
2022/04/26 09:09:10;;;;;;;30.90;24.40;;;;;;;12.85;71.22;98769.63;5030500;28;20022;-79
2022/04/26 09:11:36;;;;;;;32.13;23.83;;;;;;;12.88;71.14;98763.75;5013362;28;20029;-79
2022/04/26 09:14:05;;;;;;;31.88;22.88;;;;;;;12.99;71.32;98772.59;5031121;28;20492;-80
2022/04/26 09:16:30;;;;;;;31.45;23.52;;;;;;;13.08;71.03;98776.41;5013337;28;20105;-80
2022/04/26 09:18:58;;;;;;;29.08;20.60;;;;;;;13.18;71.02;98774.53;5012659;28;20124;-80
2022/04/26 09:21:28;;;;;;;31.23;21.52;;;;;;;13.23;71.02;98766.50;5013470;28;20040;-79
2022/04/26 09:24:03;;;;;;;29.77;21.02;;;;;;;13.29;70.31;98769.97;4997664;28;20056;-79
2022/04/26 09:26:37;;;;;;;26.38;19.15;;;;;;;13.41;69.35;98775.91;5013272;28;20143;-79
2022/04/26 09:29:04;;;;;;;26.38;19.90;;;;;;;13.44;68.86;98765.41;5012739;28;20021;-79
2022/04/26 09:31:32;;;;;;;25.63;19.42;;;;;;;13.49;68.42;98765.44;5013322;28;20048;-79
2022/04/26 09:34:10;;;;;;;27.00;18.65;;;;;;;13.63;68.51;98762.97;5013298;28;20432;-79
2022/04/26 09:36:48;;;;;;;23.42;17.38;;;;;;;13.70;68.14;98760.84;5013207;28;20045;-79
2022/04/26 09:39:21;;;;;;;24.23;18.17;;;;;;;13.78;67.88;98762.19;5012966;28;20053;-79
2022/04/26 09:41:52;;;;;;;24.60;18.33;;;;;;;13.89;67.61;98767.22;4996804;28;20025;-79
2022/04/26 09:44:33;;;;;;;22.25;17.45;;;;;;;13.92;67.31;98760.53;5013251;28;20037;-79
2022/04/26 09:46:59;;;;;;;21.30;16.73;;;;;;;14.02;67.14;98757.84;5012993;28;20025;-79
2022/04/26 09:49:26;;;;;;;22.05;17.17;;;;;;;14.12;66.76;98753.25;5029484;28;20026;-79
2022/04/26 09:51:58;;;;;;;18.33;15.25;;;;;;;14.21;66.80;98764.22;5013268;28;20555;-79
2022/04/26 09:54:23;;;;;;;24.42;17.00;;;;;;;14.30;65.80;98762.59;5013219;28;20021;-79
2022/04/26 09:56:50;;;;;;;17.95;15.55;;;;;;;14.40;65.23;98761.75;5012355;28;20429;-79
2022/04/26 09:59:33;;;;;;;18.00;14.35;;;;;;;14.58;65.24;98769.19;5030426;28;20025;-79
2022/04/26 10:01:59;;;;;;;19.20;14.60;;;;;;;14.60;65.08;98759.78;5030999;28;20034;-79
2022/04/26 10:04:29;;;;;;;19.23;13.98;;;;;;;14.72;65.24;98762.94;4996797;28;20037;-79
2022/04/26 10:07:03;;;;;;;18.80;13.48;;;;;;;14.72;64.83;98759.47;5012936;28;20433;-79
2022/04/26 10:09:29;;;;;;;20.45;13.05;;;;;;;14.79;65.15;98755.38;5031292;28;20485;-79
2022/04/26 10:12:00;;;;;;;16.60;12.30;;;;;;;14.89;64.80;98754.53;5013525;28;20025;-79
2022/04/26 10:14:28;;;;;;;18.50;13.45;;;;;;;14.98;64.16;98758.22;4997544;28;20508;-79
2022/04/26 10:16:54;;;;;;;16.42;12.68;;;;;;;15.06;64.19;98760.31;5016972;28;20022;-79
2022/04/26 10:19:19;;;;;;;16.60;11.82;;;;;;;15.17;63.50;98759.16;5034738;28;20033;-79
2022/04/26 10:21:49;;;;;;;15.55;11.40;;;;;;;15.34;62.81;98756.88;5000598;28;20040;-79
2022/04/26 10:24:20;;;;;;;16.70;11.68;;;;;;;15.37;63.30;98761.72;5017874;28;20029;-79
2022/04/26 10:26:46;;;;;;;15.52;10.77;;;;;;;15.35;63.18;98749.63;5034748;28;20037;-79
2022/04/26 10:29:17;;;;;;;13.27;11.00;;;;;;;15.43;62.81;98754.38;5034339;28;20092;-79
2022/04/26 10:31:50;;;;;;;14.63;10.35;;;;;;;15.40;62.95;98755.75;5034814;28;20068;-79
2022/04/26 10:34:23;;;;;;;13.82;10.60;;;;;;;15.45;62.35;98752.25;5015553;28;20439;-79
2022/04/26 10:36:50;;;;;;;13.35;10.82;;;;;;;15.41;62.46;98757.38;5017489;28;20077;-79
2022/04/26 10:39:22;;;;;;;12.02;9.18;;;;;;;15.42;61.50;98752.78;5016333;28;20036;-79
2022/04/26 10:41:48;;;;;;;13.77;10.25;;;;;;;15.40;61.76;98766.50;5034708;28;20025;-79
2022/04/26 10:44:32;;;;;;;11.35;9.40;;;;;;;15.37;61.78;98761.72;5033342;28;20386;-79
2022/04/26 10:47:03;;;;;;;11.15;8.85;;;;;;;15.45;60.99;98763.81;5034317;28;20044;-80
2022/04/26 10:49:40;;;;;;;9.95;8.35;;;;;;;15.37;61.32;98771.66;5034707;28;20431;-79
2022/04/26 10:52:15;;;;;;;11.13;8.98;;;;;;;15.33;60.58;98770.63;5034798;28;20101;-79
2022/04/26 10:54:46;;;;;;;8.48;7.47;;;;;;;15.29;60.04;98770.34;5033381;28;20025;-79
2022/04/26 10:57:22;;;;;;;11.27;7.35;;;;;;;15.25;59.47;98773.88;5033967;28;20399;-79
2022/04/26 10:59:59;;;;;;;8.68;6.25;;;;;;;15.25;59.24;98776.56;5001877;28;20053;-79
2022/04/26 11:02:26;;;;;;;7.97;6.78;;;;;;;14.98;59.88;98791.25;5017333;28;20033;-79
2022/04/26 11:04:59;;;;;;;8.98;5.82;;;;;;;14.93;59.78;98787.81;5000830;28;20025;-79
2022/04/26 11:07:27;;;;;;;8.23;6.00;;;;;;;14.94;58.96;98787.53;5015819;28;20052;-79
2022/04/26 11:09:54;;;;;;;8.32;5.97;;;;;;;14.86;59.91;98790.00;5016390;28;20030;-79
2022/04/26 11:12:21;;;;;;;9.25;6.53;;;;;;;14.79;59.91;98795.69;5016883;28;20083;-79
2022/04/26 11:14:48;;;;;;;7.57;5.78;;;;;;;14.84;60.05;98800.22;5016503;28;20397;-79
2022/04/26 11:17:18;;;;;;;6.88;5.30;;;;;;;14.73;59.78;98798.66;5033462;28;20089;-79
2022/04/26 11:19:57;;;;;;;6.82;5.68;;;;;;;14.80;59.72;98799.19;5016538;28;20030;-79
2022/04/26 11:22:23;;;;;;;7.05;5.70;;;;;;;14.76;60.09;98793.56;5016716;28;20037;-79
2022/04/26 11:30:37;;;;;;;6.20;5.13;;;;;;;14.80;59.49;98801.88;5034634;28;20102;-79
2022/04/26 11:33:11;;;;;;;6.70;5.50;;;;;;;14.66;60.86;98798.97;5034273;28;20029;-79
2022/04/26 11:35:38;;;;;;;7.78;5.03;;;;;;;14.70;60.18;98805.38;5016622;28;20438;-79
2022/04/26 11:38:03;;;;;;;7.45;5.70;;;;;;;14.64;61.10;98806.50;5015554;28;20040;-79
2022/04/26 11:40:36;;;;;;;6.43;5.43;;;;;;;14.61;61.32;98806.25;5016460;28;20021;-79
2022/04/26 11:43:16;;;;;;;6.15;5.22;;;;;;;14.70;61.18;98800.03;5016486;28;20048;-79
2022/04/26 11:45:44;;;;;;;7.13;5.40;;;;;;;14.70;61.09;98800.03;5016233;28;20033;-79
2022/04/26 11:48:20;;;;;;;7.60;5.65;;;;;;;14.81;61.53;98812.31;5015694;28;20068;-79
2022/04/26 11:50:48;;;;;;;8.32;6.18;;;;;;;14.87;61.10;98802.38;5033975;28;20473;-79
2022/04/26 11:53:19;;;;;;;8.77;6.47;;;;;;;14.89;61.11;98802.91;5016005;28;20233;-79
2022/04/26 11:55:51;;;;;;;9.50;6.80;;;;;;;14.99;60.19;98803.63;4983455;28;20508;-79
2022/04/26 11:58:33;;;;;;;9.68;6.70;;;;;;;14.92;60.15;98808.50;4999843;28;20026;-79
2022/04/26 12:01:11;;;;;;;7.38;6.63;;;;;;;14.86;61.19;98817.69;5015504;28;20067;-79
2022/04/26 12:03:41;;;;;;;8.35;6.53;;;;;;;14.88;60.41;98820.91;5015768;28;20021;-79
2022/04/26 12:06:12;;;;;;;7.47;6.70;;;;;;;14.90;60.24;98818.72;5016726;28;20040;-79
2022/04/26 12:08:42;;;;;;;11.82;6.70;;;;;;;14.91;60.47;98812.28;4998666;28;20037;-79
2022/04/26 12:11:28;;;;;;;10.00;7.57;;;;;;;14.87;59.99;98821.97;5014200;28;20036;-79
2022/04/26 12:14:17;;;;;;;10.00;6.75;;;;;;;14.84;60.92;98825.22;5026667;28;21532;-79
2022/04/26 12:16:55;;;;;;;8.18;7.00;;;;;;;14.84;60.58;98821.72;4994588;28;20042;-80
2022/04/26 12:19:32;;;;;;;8.93;6.60;;;;;;;14.80;60.57;98820.66;5015768;28;20477;-80
2022/04/26 12:21:59;;;;;;;8.32;6.70;;;;;;;14.78;60.77;98817.47;5014792;28;20116;-79
2022/04/26 12:24:27;;;;;;;10.85;7.32;;;;;;;14.83;60.69;98823.59;4977232;28;20049;-79
2022/04/26 12:26:55;;;;;;;7.63;6.00;;;;;;;14.78;61.03;98826.34;5032100;28;20032;-79
2022/04/26 12:29:41;;;;;;;8.52;6.75;;;;;;;14.78;61.17;98826.34;5031297;28;20024;-79
2022/04/26 12:32:09;;;;;;;8.00;6.10;;;;;;;14.85;60.98;98826.81;5001238;28;20194;-79
2022/04/26 12:34:36;;;;;;;7.38;5.32;;;;;;;14.82;61.05;98821.19;5014887;28;20044;-79
2022/04/26 12:37:11;;;;;;;6.30;5.72;;;;;;;14.97;60.27;98830.00;4981167;28;20429;-79
2022/04/26 12:39:50;;;;;;;5.70;5.03;;;;;;;14.84;61.26;98822.53;5007786;28;20041;-79
2022/04/26 12:42:25;;;;;;;6.28;5.35;;;;;;;14.84;60.38;98821.72;5032925;28;20120;-80
2022/04/26 12:44:52;;;;;;;7.35;4.80;;;;;;;14.79;60.35;98819.88;5013407;28;20029;-79
2022/04/26 12:52:49;;;;;;;6.22;5.00;;;;;;;14.84;60.19;98816.34;5028646;28;20028;-79
2022/04/26 12:55:28;;;;;;;6.20;5.00;;;;;;;14.95;60.37;98821.41;5022922;28;20053;-79
2022/04/26 12:57:55;;;;;;;5.93;5.32;;;;;;;14.93;59.72;98820.88;4993335;28;20033;-79
2022/04/26 13:00:23;;;;;;;6.53;5.40;;;;;;;14.97;59.50;98821.13;5006441;28;20087;-79
2022/04/26 13:02:51;;;;;;;7.35;5.38;;;;;;;15.04;59.76;98824.31;5005814;28;20486;-79
2022/04/26 13:05:17;;;;;;;7.00;5.65;;;;;;;15.06;59.73;98824.84;5008773;28;20033;-79
2022/04/26 13:07:46;;;;;;;6.55;4.88;;;;;;;15.05;59.56;98822.44;4996010;28;20025;-80
2022/04/26 13:10:12;;;;;;;6.07;5.47;;;;;;;15.00;60.28;98824.03;5016498;28;20477;-79
2022/04/26 13:12:38;;;;;;;15.82;5.03;;;;;;;14.94;58.77;98816.28;5011964;28;20071;-79
2022/04/26 13:15:05;;;;;;;7.05;5.43;;;;;;;14.96;58.12;98816.84;5012755;28;20033;-79
2022/04/26 13:17:30;;;;;;;6.20;5.20;;;;;;;14.93;58.64;98820.06;4965378;28;20034;-79
2022/04/26 13:19:55;;;;;;;6.78;5.93;;;;;;;14.95;58.25;98816.03;5020539;28;20067;-79
2022/04/26 13:22:21;;;;;;;6.40;5.25;;;;;;;14.90;59.35;98816.03;5014467;28;20108;-80
2022/04/26 13:24:47;;;;;;;4.85;4.35;;;;;;;14.94;59.71;98819.78;4991996;28;20029;-79
2022/04/26 13:27:12;;;;;;;6.20;5.60;;;;;;;14.90;59.45;98809.84;4985273;28;20524;-79
2022/04/26 13:29:37;;;;;;;6.45;5.45;;;;;;;14.87;58.89;98821.19;4988957;28;20036;-80
2022/04/26 13:32:04;;;;;;;6.22;5.25;;;;;;;14.85;59.77;98810.69;5005151;28;20462;-80
2022/04/26 13:34:29;;;;;;;9.77;5.78;;;;;;;14.87;59.72;98821.97;5002238;28;20030;-79
2022/04/26 13:36:55;;;;;;;6.85;4.88;;;;;;;14.91;60.39;98814.97;4993700;28;20029;-79
2022/04/26 13:39:21;;;;;;;6.07;4.90;;;;;;;14.99;60.03;98827.81;4996195;28;20382;-80
2022/04/26 13:41:52;;;;;;;6.50;5.10;;;;;;;14.97;59.94;98821.94;4996332;28;20025;-79
2022/04/26 13:44:19;;;;;;;7.18;5.20;;;;;;;14.99;59.93;98827.81;5029799;28;20531;-80
2022/04/26 13:46:58;;;;;;;5.93;5.43;;;;;;;15.01;59.61;98822.16;4990183;28;20034;-80
2022/04/26 13:49:24;;;;;;;6.80;5.50;;;;;;;15.05;59.56;98823.22;4994706;28;20056;-80
2022/04/26 13:51:49;;;;;;;6.90;6.20;;;;;;;15.02;59.79;98815.72;5030164;28;20025;-80
2022/04/26 13:54:14;;;;;;;6.65;6.05;;;;;;;14.95;59.50;98802.59;4997217;28;20033;-79
2022/04/26 13:56:53;;;;;;;;;;;;;;;;;;;;;
2022/04/26 13:59:18;;;;;;;7.13;5.88;;;;;;;15.11;59.55;98818.63;5017966;28;20040;-80
2022/04/26 14:01:43;;;;;;;8.07;5.55;;;;;;;15.04;59.51;98808.19;5034529;28;20116;-79
2022/04/26 14:04:09;;;;;;;7.47;5.95;;;;;;;15.10;59.62;98819.69;5011503;28;20495;-79
2022/04/26 14:06:34;;;;;;;6.78;5.72;;;;;;;15.12;59.49;98822.91;5017144;28;21903;-79
2022/04/26 14:08:59;;;;;;;6.35;5.70;;;;;;;15.10;59.41;98809.75;5016155;28;20021;-79
2022/04/26 14:11:25;;;;;;;7.75;5.65;;;;;;;15.20;59.01;98808.91;5015829;28;20049;-79
2022/04/26 14:22:03;;;;;;;13.50;7.72;;;;;;;15.16;56.46;98808.63;5019489;28;20384;-78
2022/04/26 14:24:28;;;;;;;9.65;6.47;;;;;;;15.17;57.08;98810.25;5016771;28;20124;-79
2022/04/26 14:26:53;;;;;;;13.70;7.20;;;;;;;15.21;57.12;98805.09;5016139;28;20126;-78
2022/04/26 14:29:19;;;;;;;8.75;6.25;;;;;;;15.24;57.67;98809.94;4980866;28;20116;-78
2022/04/26 14:31:44;;;;;;;9.80;6.00;;;;;;;15.24;57.48;98807.25;5017087;28;20047;-78
2022/04/26 14:34:11;;;;;;;10.23;6.78;;;;;;;15.28;57.19;98816.34;5016700;28;20449;-78
2022/04/26 14:36:36;;;;;;;8.57;6.88;;;;;;;15.56;56.64;98796.81;5000399;28;20510;-78
2022/04/26 14:39:02;;;;;;;12.85;8.05;;;;;;;15.42;54.72;98811.97;4998433;28;20044;-78
2022/04/26 14:41:28;;;;;;;9.95;8.35;;;;;;;15.57;54.55;98819.94;5014061;28;20037;-78
2022/04/26 14:43:53;;;;;;;8.35;7.50;;;;;;;15.52;54.62;98809.22;5015759;28;20079;-79
2022/04/26 14:46:19;;;;;;;8.90;6.55;;;;;;;15.64;54.65;98815.84;4999766;28;20128;-78
2022/04/26 14:48:44;;;;;;;12.57;7.55;;;;;;;15.84;53.86;98819.44;5016034;28;20025;-78
2022/04/26 14:51:13;;;;;;;9.32;7.60;;;;;;;15.58;54.36;98803.53;5011770;28;20083;-78
2022/04/26 14:53:38;;;;;;;8.50;7.25;;;;;;;15.49;55.14;98807.09;4994338;28;20029;-78
2022/04/26 14:56:05;;;;;;;7.55;6.57;;;;;;;15.56;55.59;98815.63;5015988;28;20499;-78
2022/04/26 14:58:31;;;;;;;7.93;6.63;;;;;;;15.61;56.11;98819.13;5014568;28;20025;-78
2022/04/26 15:00:57;;;;;;;9.13;6.75;;;;;;;15.61;54.96;98810.22;5021038;28;20634;-78
2022/04/26 15:03:23;;;;;;;8.68;6.35;;;;;;;15.76;54.91;98823.56;5008475;28;20050;-78
2022/04/26 15:05:48;;;;;;;6.40;5.78;;;;;;;15.79;55.67;98822.19;5016138;28;20038;-78
2022/04/26 15:10:58;;;;;;;10.68;5.88;;;;;;;15.85;55.39;98819.16;5019526;28;20555;-78
2022/04/26 15:18:51;;;;;;;5.72;4.88;;;;;;;15.90;54.74;98816.41;5019499;28;20091;-78
2022/04/26 15:21:18;;;;;;;9.25;6.20;;;;;;;15.82;55.43;98814.34;4990121;28;20423;-78
2022/04/26 15:23:44;;;;;;;6.35;5.70;;;;;;;16.18;54.60;98815.63;5015699;28;20068;-78
2022/04/26 15:26:11;;;;;;;10.75;5.90;;;;;;;16.07;55.02;98810.63;5014194;28;20501;-78
2022/04/26 15:28:37;;;;;;;7.68;5.75;;;;;;;16.07;54.75;98816.81;4999548;28;20030;-79
2022/04/26 15:31:03;;;;;;;8.52;5.55;;;;;;;16.00;55.26;98807.44;5031160;28;20081;-78
2022/04/26 15:33:29;;;;;;;10.73;6.13;;;;;;;16.39;54.68;98808.91;5030436;28;20429;-78
2022/04/26 15:35:58;;;;;;;8.50;5.38;;;;;;;16.26;55.70;98817.69;5013938;28;20033;-78
2022/04/26 15:38:27;;;;;;;5.35;4.85;;;;;;;16.28;56.04;98823.59;5006414;28;20045;-78
2022/04/26 15:40:53;;;;;;;6.93;5.15;;;;;;;16.64;54.81;98825.91;5032395;28;20033;-78